Time;durP1;ratioP1;P1;durP2;ratioP2;P2;SDS_P1;SDS_P2;PMS_P1;PMS_P2;Temp;Humidity;BMP_temperature;BMP_pressure;BME280_temperature;BME280_humidity;BME280_pressure;Samples;Min_cycle;Max_cycle;Signal;HPM_P1;HPM_P2
2021/05/13 00:01:04;;;;;;;15.77;8.18;;;;;;;15.26;73.37;96158.91;4907748;29;20523;-68
2021/05/13 00:03:29;;;;;;;8.43;4.88;;;;;;;14.73;72.33;96086.41;4905655;29;20063;-68
2021/05/13 00:05:54;;;;;;;4.38;3.53;;;;;;;15.31;69.71;96147.28;4907084;29;20035;-67
2021/05/13 00:08:20;;;;;;;3.25;2.95;;;;;;;15.28;68.54;96156.50;4908764;29;20032;-68
2021/05/13 00:10:45;;;;;;;3.78;3.13;;;;;;;15.25;64.74;96146.19;4908526;29;20099;-67
2021/05/13 00:13:11;;;;;;;3.63;3.00;;;;;;;15.38;64.46;96144.38;4907118;29;20063;-68
2021/05/13 00:15:40;;;;;;;3.10;2.63;;;;;;;15.45;63.69;96149.88;4906413;29;20055;-67
2021/05/13 00:18:06;;;;;;;4.28;2.72;;;;;;;15.44;62.34;96153.88;4906773;29;20473;-67
2021/05/13 00:20:36;;;;;;;6.40;3.05;;;;;;;15.53;62.51;96148.53;4907656;29;20103;-67
2021/05/13 00:23:02;;;;;;;7.25;4.07;;;;;;;15.26;62.92;96131.00;4908297;29;20036;-67
2021/05/13 00:25:28;;;;;;;6.72;3.63;;;;;;;15.15;65.76;96152.69;4906116;29;20042;-67
2021/05/13 00:27:54;;;;;;;6.15;3.60;;;;;;;15.04;65.02;96152.06;4906516;29;20481;-68
2021/05/13 00:30:20;;;;;;;4.22;2.88;;;;;;;14.72;66.39;96151.72;4906290;29;20075;-68
2021/05/13 00:32:46;;;;;;;3.63;2.88;;;;;;;14.91;66.19;96153.84;4906665;29;20061;-68
2021/05/13 00:35:14;;;;;;;3.35;3.03;;;;;;;14.61;67.77;96154.66;4907581;29;20036;-67
2021/05/13 00:37:40;;;;;;;2.75;2.53;;;;;;;14.15;68.13;96129.31;4908013;29;20040;-68
2021/05/13 00:40:08;;;;;;;6.13;3.08;;;;;;;14.22;69.91;96145.16;4906192;29;20464;-68
2021/05/13 00:42:34;;;;;;;13.43;7.35;;;;;;;14.36;69.13;96158.97;4906187;29;20040;-67
2021/05/13 00:48:21;;;;;;;8.27;2.92;;;;;;;14.60;66.64;96144.72;4908681;29;20100;-67
2021/05/13 00:50:47;;;;;;;6.85;3.60;;;;;;;13.71;67.32;95993.03;4905658;29;20044;-68
2021/05/13 00:53:12;;;;;;;6.15;3.25;;;;;;;14.87;66.10;96153.88;4907743;29;20028;-68
2021/05/13 00:55:38;;;;;;;3.63;2.97;;;;;;;14.12;64.61;96048.59;4905479;29;20047;-67
2021/05/13 00:58:06;;;;;;;3.83;2.72;;;;;;;14.69;64.08;96124.69;4906152;29;20095;-67
2021/05/13 01:02:58;;;;;;;4.55;2.80;;;;;;;15.00;65.43;96156.94;4907872;29;20043;-68
2021/05/13 01:05:24;;;;;;;3.45;2.90;;;;;;;14.99;66.32;96149.75;4905773;29;20024;-68
2021/05/13 01:07:50;;;;;;;4.88;3.47;;;;;;;15.06;66.44;96152.44;4906582;29;20439;-67
2021/05/13 01:10:16;;;;;;;10.25;4.47;;;;;;;14.96;67.25;96158.97;4905698;29;20036;-68
2021/05/13 01:12:42;;;;;;;5.80;4.47;;;;;;;14.80;68.07;96153.22;4905922;29;20051;-67
2021/05/13 01:15:30;;;;;;;6.78;3.75;;;;;;;13.96;68.76;96038.06;4907140;29;20030;-67
2021/05/13 01:18:10;;;;;;;3.65;3.35;;;;;;;14.05;70.36;96082.13;4907767;29;20059;-66
2021/05/13 01:20:35;;;;;;;3.85;3.15;;;;;;;14.48;70.29;96141.72;4905782;29;20028;-67
2021/05/13 01:23:02;;;;;;;5.28;3.47;;;;;;;14.45;71.21;96165.59;4907727;29;20158;-67
2021/05/13 01:25:28;;;;;;;3.55;3.25;;;;;;;13.41;75.30;96141.22;4907753;29;20527;-67
2021/05/13 01:28:01;;;;;;;5.03;3.78;;;;;;;13.65;75.95;96156.91;4907559;29;20534;-67
2021/05/13 01:30:29;;;;;;;6.25;4.10;;;;;;;13.64;76.01;96160.88;4905587;29;20050;-67
2021/05/13 01:32:58;;;;;;;5.20;4.07;;;;;;;13.29;77.10;96111.09;4907446;29;20500;-67
2021/05/13 01:35:24;;;;;;;10.70;4.90;;;;;;;13.32;77.38;96120.63;4907014;29;20141;-67
2021/05/13 01:38:19;;;;;;;7.97;5.03;;;;;;;13.23;80.93;96162.81;4907433;29;20079;-67
2021/05/13 01:40:59;;;;;;;10.25;5.65;;;;;;;13.07;83.11;96170.09;4906936;29;20046;-67
2021/05/13 01:43:27;;;;;;;7.05;5.32;;;;;;;13.22;82.09;96172.38;4907626;29;20051;-67
2021/05/13 01:45:52;;;;;;;6.57;4.90;;;;;;;13.35;81.62;96190.16;4905610;29;20035;-68
2021/05/13 01:48:18;;;;;;;10.57;5.45;;;;;;;13.32;82.42;96181.84;4905427;29;20103;-67
2021/05/13 01:50:46;;;;;;;5.70;4.88;;;;;;;12.91;80.99;96101.09;4905279;29;20020;-67
2021/05/13 01:53:11;;;;;;;4.68;4.05;;;;;;;13.23;80.62;96175.94;4907345;29;20040;-68
2021/05/13 01:55:37;;;;;;;7.00;5.55;;;;;;;12.85;83.33;96108.25;4907649;29;20047;-68
2021/05/13 01:58:03;;;;;;;6.53;5.38;;;;;;;13.25;83.41;96171.53;4910896;29;20111;-68
2021/05/13 02:00:28;;;;;;;8.63;6.05;;;;;;;13.13;83.97;96152.56;4909985;29;20475;-68
2021/05/13 02:02:54;;;;;;;33.70;19.15;;;;;;;12.57;83.89;96080.66;4910869;29;20055;-68
2021/05/13 02:05:21;;;;;;;26.27;14.10;;;;;;;13.03;84.16;96164.56;4910856;29;20043;-67
2021/05/13 02:07:47;;;;;;;12.95;9.27;;;;;;;13.05;83.59;96178.84;4910773;29;20096;-68
2021/05/13 02:10:13;;;;;;;6.45;4.90;;;;;;;12.98;84.15;96189.97;4909865;29;20032;-68
2021/05/13 02:12:39;;;;;;;5.35;3.95;;;;;;;12.52;82.28;96131.06;4910420;29;20135;-68
2021/05/13 02:15:11;;;;;;;6.57;3.90;;;;;;;12.63;80.81;96195.72;4908470;29;20477;-68
2021/05/13 02:17:37;;;;;;;3.83;3.45;;;;;;;12.57;81.20;96186.22;4908664;29;20479;-68
2021/05/13 02:20:08;;;;;;;5.55;4.03;;;;;;;12.60;81.35;96190.97;4910135;29;20028;-68
2021/05/13 02:22:34;;;;;;;5.45;3.40;;;;;;;12.19;81.92;96137.19;4910606;29;20044;-67
2021/05/13 02:24:59;;;;;;;6.80;3.58;;;;;;;12.41;82.76;96188.66;4910344;29;20496;-67
2021/05/13 02:27:25;;;;;;;5.43;4.10;;;;;;;11.94;83.33;96119.84;4910027;29;20051;-67
2021/05/13 02:29:50;;;;;;;4.25;3.88;;;;;;;12.04;83.80;96161.41;4908413;29;20068;-68
2021/05/13 02:32:16;;;;;;;3.90;3.40;;;;;;;12.22;84.10;96208.56;4909901;29;20040;-68
2021/05/13 02:34:41;;;;;;;4.55;3.83;;;;;;;12.05;84.10;96203.84;4908488;29;20039;-68
2021/05/13 02:37:07;;;;;;;5.25;4.05;;;;;;;11.49;84.61;96145.66;4909573;29;20051;-69
2021/05/13 02:39:33;;;;;;;3.75;3.35;;;;;;;10.99;84.89;96075.59;4910328;29;20032;-69
2021/05/13 02:41:58;;;;;;;4.47;3.67;;;;;;;11.79;84.73;96201.53;4910046;29;20040;-69
2021/05/13 02:44:24;;;;;;;6.40;3.97;;;;;;;11.70;84.70;96198.34;4910190;29;20059;-68
2021/05/13 02:46:49;;;;;;;6.65;3.53;;;;;;;11.57;84.47;96199.94;4909584;29;20443;-69
2021/05/13 02:49:15;;;;;;;7.22;3.42;;;;;;;11.22;83.92;96133.41;4909790;29;20040;-69
2021/05/13 02:51:40;;;;;;;5.45;3.40;;;;;;;11.63;83.87;96196.38;4909634;29;20555;-67
2021/05/13 02:54:06;;;;;;;4.15;3.53;;;;;;;11.49;84.40;96203.91;4909910;29;20042;-67
2021/05/13 02:56:31;;;;;;;5.03;3.42;;;;;;;11.37;85.71;96201.50;4907903;29;20143;-68
2021/05/13 02:58:57;;;;;;;6.10;3.90;;;;;;;11.30;85.47;96207.84;4909904;29;20044;-68
2021/05/13 03:01:26;;;;;;;6.00;3.28;;;;;;;10.61;86.10;96132.56;4909377;29;20038;-68
2021/05/13 03:03:53;;;;;;;5.85;3.60;;;;;;;9.65;86.11;95991.53;4908996;29;20056;-69
2021/05/13 03:06:23;;;;;;;4.47;3.58;;;;;;;11.07;86.05;96209.41;4907059;29;20034;-68
2021/05/13 03:08:53;;;;;;;5.63;4.00;;;;;;;11.13;85.37;96203.09;4909411;29;20036;-68
2021/05/13 03:11:18;;;;;;;4.30;3.60;;;;;;;11.15;85.15;96206.25;4909366;29;20036;-68
2021/05/13 03:13:45;;;;;;;6.13;3.83;;;;;;;10.63;85.31;96141.28;4909447;29;20044;-68
2021/05/13 03:16:10;;;;;;;6.63;3.58;;;;;;;11.02;85.19;96224.44;4909326;29;20071;-68
2021/05/13 03:18:36;;;;;;;4.35;3.38;;;;;;;11.07;85.30;96206.63;4907519;29;20511;-69
2021/05/13 03:21:12;;;;;;;4.22;3.70;;;;;;;11.02;84.97;96191.19;4908966;29;20423;-68
2021/05/13 03:26:40;;;;;;;6.38;4.00;;;;;;;10.98;84.57;96197.91;4908301;29;20040;-69
2021/05/13 03:29:05;;;;;;;4.18;3.72;;;;;;;11.08;84.38;96189.59;4908077;29;20079;-68
2021/05/13 03:31:34;;;;;;;5.30;3.80;;;;;;;10.14;85.36;96074.72;4905790;29;20143;-68
2021/05/13 03:34:00;;;;;;;5.40;4.15;;;;;;;10.04;86.31;96075.44;4907975;29;20033;-69
2021/05/13 03:36:26;;;;;;;9.32;4.30;;;;;;;10.96;85.49;96191.97;4906277;29;20036;-68
2021/05/13 03:38:52;;;;;;;8.80;3.65;;;;;;;11.07;84.64;96185.25;4907639;29;20454;-68
2021/05/13 03:41:17;;;;;;;10.93;3.85;;;;;;;11.08;84.41;96188.84;4907793;29;20058;-69
2021/05/13 03:43:43;;;;;;;5.93;4.57;;;;;;;11.12;84.14;96192.38;4907636;29;20040;-68
2021/05/13 03:46:08;;;;;;;9.50;4.53;;;;;;;11.17;83.52;96186.47;4907200;29;20047;-69
2021/05/13 03:48:34;;;;;;;6.80;4.20;;;;;;;11.18;83.56;96193.56;4907951;29;20052;-69
2021/05/13 03:51:00;;;;;;;7.57;3.42;;;;;;;11.20;82.90;96192.00;4907527;29;20055;-68
2021/05/13 03:53:25;;;;;;;12.55;6.28;;;;;;;11.30;82.21;96195.97;4906375;29;20047;-69
2021/05/13 03:55:52;;;;;;;13.63;6.30;;;;;;;11.45;81.73;96192.00;4908082;29;20071;-70
2021/05/13 03:58:25;;;;;;;7.50;4.72;;;;;;;11.58;81.31;96190.44;4908822;29;20425;-68
2021/05/13 04:03:20;;;;;;;5.88;3.63;;;;;;;10.99;81.27;96113.59;4908865;29;20040;-68
2021/05/13 04:05:46;;;;;;;5.05;4.15;;;;;;;11.61;80.56;96178.53;4907987;29;20051;-68
2021/05/13 04:08:12;;;;;;;4.57;3.70;;;;;;;11.75;80.82;96203.50;4906941;29;20043;-67
2021/05/13 04:10:39;;;;;;;7.32;3.42;;;;;;;11.83;79.88;96186.47;4908437;29;20036;-67
2021/05/13 04:13:07;;;;;;;6.10;3.70;;;;;;;12.04;78.93;96186.41;4908662;29;20044;-67
2021/05/13 04:15:33;;;;;;;4.38;3.95;;;;;;;12.30;78.02;96187.91;4907751;29;20144;-68
2021/05/13 04:17:58;;;;;;;4.88;3.80;;;;;;;12.01;77.68;96142.03;4908123;29;20194;-67
2021/05/13 04:20:24;;;;;;;21.00;4.53;;;;;;;12.20;77.15;96152.66;4907824;29;20126;-68
2021/05/13 04:22:49;;;;;;;4.30;3.50;;;;;;;12.59;76.87;96194.94;4908109;29;20415;-68
2021/05/13 04:25:15;;;;;;;4.43;3.85;;;;;;;10.09;76.00;95770.75;4907600;29;20036;-68
2021/05/13 04:27:40;;;;;;;6.75;4.00;;;;;;;12.92;75.82;96188.81;4906786;29;20063;-68
2021/05/13 04:30:06;;;;;;;4.32;3.22;;;;;;;13.15;75.25;96189.09;4907950;29;20040;-67
2021/05/13 04:32:32;;;;;;;4.65;3.55;;;;;;;13.35;73.36;96181.00;4906011;29;20043;-67
2021/05/13 04:34:58;;;;;;;6.95;4.68;;;;;;;13.17;74.18;96185.91;4906338;29;20032;-68
2021/05/13 04:37:23;;;;;;;6.22;4.47;;;;;;;12.87;73.80;96149.53;4907453;29;20067;-69
2021/05/13 04:39:49;;;;;;;8.20;4.25;;;;;;;13.17;73.09;96131.09;4907745;29;20085;-67
2021/05/13 04:42:14;;;;;;;8.65;4.50;;;;;;;13.53;71.92;96151.06;4907748;29;20040;-69
2021/05/13 04:44:40;;;;;;;8.85;5.07;;;;;;;13.92;71.27;96204.38;4907643;29;20048;-69
2021/05/13 04:47:24;;;;;;;9.50;4.70;;;;;;;14.08;71.34;96206.59;4907817;29;20464;-69
2021/05/13 04:49:51;;;;;;;8.40;3.88;;;;;;;13.51;69.92;96083.91;4905903;29;20135;-69
2021/05/13 04:52:17;;;;;;;6.38;3.53;;;;;;;13.27;70.05;96057.91;4907076;29;20423;-70
2021/05/13 04:54:44;;;;;;;5.43;3.67;;;;;;;14.49;69.17;96215.72;4907665;29;20516;-69
2021/05/13 04:57:09;;;;;;;8.77;4.13;;;;;;;14.54;69.39;96209.72;4905464;29;20048;-70
2021/05/13 04:59:35;;;;;;;6.88;3.78;;;;;;;14.62;68.85;96198.03;4907462;29;20112;-70
2021/05/13 05:02:00;;;;;;;4.68;3.70;;;;;;;13.85;68.25;96051.31;4905245;29;20047;-70
2021/05/13 05:04:25;;;;;;;7.63;4.28;;;;;;;14.85;68.00;96183.41;4905959;29;20103;-70
2021/05/13 05:06:52;;;;;;;6.63;4.72;;;;;;;13.83;67.42;96003.63;4907176;29;20063;-69
2021/05/13 05:09:18;;;;;;;5.93;4.38;;;;;;;14.44;66.91;96082.44;4905845;29;20037;-70
2021/05/13 05:11:43;;;;;;;6.75;4.10;;;;;;;15.05;66.59;96148.06;4906971;29;20032;-69
2021/05/13 05:14:09;;;;;;;10.10;4.40;;;;;;;15.44;65.69;96195.75;4905849;29;20040;-70
2021/05/13 05:16:34;;;;;;;7.30;4.35;;;;;;;15.39;64.17;96157.16;4907010;29;20066;-70
2021/05/13 05:18:59;;;;;;;9.07;5.30;;;;;;;15.78;65.98;96203.94;4907508;29;20518;-70
2021/05/13 05:21:25;;;;;;;8.15;5.40;;;;;;;14.06;70.01;96020.44;4906913;29;20118;-69
2021/05/13 05:23:50;;;;;;;7.88;5.82;;;;;;;14.97;72.50;96214.31;4907694;29;20029;-70
2021/05/13 05:26:16;;;;;;;7.65;5.68;;;;;;;14.61;75.71;96227.13;4907017;29;20024;-69
2021/05/13 05:28:41;;;;;;;6.35;5.75;;;;;;;14.17;73.93;96076.00;4907190;29;20035;-69
2021/05/13 05:31:07;;;;;;;6.47;5.88;;;;;;;14.70;74.30;96143.00;4910219;29;20032;-69
2021/05/13 05:33:32;;;;;;;5.65;5.15;;;;;;;14.86;74.59;96179.41;4909516;29;20044;-69
2021/05/13 05:35:57;;;;;;;5.78;5.07;;;;;;;15.03;74.14;96189.56;4910877;29;20673;-69
2021/05/13 05:38:23;;;;;;;7.40;5.95;;;;;;;15.15;72.67;96211.28;4911123;29;20127;-69
2021/05/13 05:40:48;;;;;;;6.30;5.43;;;;;;;15.29;73.18;96219.44;4910899;29;20036;-69
2021/05/13 05:43:14;;;;;;;5.90;5.35;;;;;;;14.55;73.52;96108.97;4911394;29;20036;-69
2021/05/13 05:45:40;;;;;;;10.20;5.78;;;;;;;13.08;72.82;95883.31;4908758;29;20032;-69
2021/05/13 05:48:05;;;;;;;9.93;6.47;;;;;;;15.24;74.32;96205.97;4911194;29;20883;-69
2021/05/13 05:50:38;;;;;;;8.93;5.88;;;;;;;15.60;72.04;96209.06;4910441;29;20512;-69
2021/05/13 05:53:04;;;;;;;9.98;5.88;;;;;;;15.77;70.65;96200.38;4910946;29;20043;-69
2021/05/13 05:55:31;;;;;;;8.32;5.28;;;;;;;15.72;68.83;96180.53;4909823;29;20044;-69
2021/05/13 05:57:57;;;;;;;6.25;5.15;;;;;;;15.97;68.31;96198.44;4909602;29;20040;-69
2021/05/13 06:00:23;;;;;;;7.68;5.65;;;;;;;15.65;67.55;96127.63;4908394;29;20059;-69
2021/05/13 06:02:48;;;;;;;6.20;5.05;;;;;;;16.05;66.29;96204.69;4910266;29;20043;-69
2021/05/13 06:05:14;;;;;;;6.32;3.90;;;;;;;16.35;60.50;96208.13;4909979;29;20092;-69
2021/05/13 06:07:40;;;;;;;7.22;4.00;;;;;;;16.08;57.24;96154.34;4908791;29;20040;-68
2021/05/13 06:10:08;;;;;;;6.45;4.90;;;;;;;16.73;57.90;96199.41;4908874;29;20035;-69
2021/05/13 06:12:37;;;;;;;5.40;4.55;;;;;;;16.49;57.46;96110.03;4908806;29;20055;-69
2021/05/13 06:15:07;;;;;;;5.05;4.50;;;;;;;16.94;57.03;96160.59;4910135;29;20475;-68
2021/05/13 06:17:33;;;;;;;6.00;5.40;;;;;;;16.97;59.27;96181.31;4910526;29;20039;-69
2021/05/13 06:20:01;;;;;;;9.15;5.03;;;;;;;17.07;60.18;96185.91;4910809;29;20040;-68
2021/05/13 06:22:29;;;;;;;7.18;5.35;;;;;;;17.10;60.62;96179.44;4908394;29;20047;-67
2021/05/13 06:24:55;;;;;;;5.50;4.45;;;;;;;17.41;58.18;96178.72;4910324;29;20044;-69
2021/05/13 06:27:21;;;;;;;9.88;4.70;;;;;;;17.65;56.71;96193.38;4908205;29;20035;-69
2021/05/13 06:29:46;;;;;;;6.90;4.68;;;;;;;17.47;54.49;96114.59;4910191;29;20416;-68
2021/05/13 06:32:12;;;;;;;8.18;4.88;;;;;;;17.96;54.18;96169.34;4907914;29;20035;-69
2021/05/13 06:34:37;;;;;;;5.57;4.70;;;;;;;17.94;54.50;96171.84;4910146;29;20177;-68
2021/05/13 06:37:03;;;;;;;6.15;4.45;;;;;;;16.58;55.53;96110.22;4907817;29;20503;-69
2021/05/13 06:39:32;;;;;;;6.50;5.10;;;;;;;16.58;55.58;96104.63;4910233;29;20071;-69
2021/05/13 06:42:01;;;;;;;6.68;4.65;;;;;;;17.23;52.99;96099.94;4908957;29;20035;-69
2021/05/13 06:44:27;;;;;;;7.28;5.82;;;;;;;18.02;52.47;96162.00;4910327;29;20052;-68
2021/05/13 06:46:52;;;;;;;4.95;4.53;;;;;;;18.18;52.25;96170.38;4908086;29;20483;-70
2021/05/13 06:49:18;;;;;;;5.07;4.57;;;;;;;17.99;51.21;96157.28;4909505;29;20068;-69
2021/05/13 06:51:44;;;;;;;5.60;4.00;;;;;;;18.06;50.84;96090.63;4907564;29;20033;-69
2021/05/13 06:54:10;;;;;;;8.23;4.60;;;;;;;18.86;50.45;96165.28;4909908;29;20488;-70
2021/05/13 06:56:35;;;;;;;5.35;4.28;;;;;;;18.94;49.60;96155.41;4907820;29;20039;-68
2021/05/13 06:59:01;;;;;;;7.22;4.32;;;;;;;18.52;49.40;96047.28;4908192;29;20067;-68
2021/05/13 07:01:27;;;;;;;6.43;4.60;;;;;;;19.32;48.97;96147.84;4909120;29;20036;-68
2021/05/13 07:03:52;;;;;;;9.27;4.45;;;;;;;19.37;47.86;96138.88;4909435;29;20036;-68
2021/05/13 07:06:18;;;;;;;5.32;4.82;;;;;;;19.34;48.30;96139.78;4909475;29;20535;-69
2021/05/13 07:08:43;;;;;;;12.95;4.95;;;;;;;18.60;48.28;96023.41;4909269;29;20043;-69
2021/05/13 07:11:09;;;;;;;4.78;4.38;;;;;;;19.20;47.98;96106.50;4908782;29;20172;-69
2021/05/13 07:13:36;;;;;;;6.78;4.70;;;;;;;19.66;47.54;96132.34;4909300;29;20036;-69
2021/05/13 07:16:02;;;;;;;5.85;4.53;;;;;;;19.59;48.43;96138.97;4907778;29;20488;-69
2021/05/13 07:18:27;;;;;;;6.72;4.53;;;;;;;20.02;48.47;96135.50;4908231;29;20036;-70
2021/05/13 07:20:53;;;;;;;5.43;4.53;;;;;;;20.11;47.41;96144.03;4908763;29;20095;-72
2021/05/13 07:23:18;;;;;;;11.95;5.55;;;;;;;20.46;47.14;96146.41;4909485;29;20445;-70
2021/05/13 07:25:45;;;;;;;8.88;5.22;;;;;;;20.07;46.77;96062.63;4907140;29;20040;-70
2021/05/13 07:28:10;;;;;;;7.43;5.20;;;;;;;20.18;45.14;96045.41;4907240;29;20519;-69
2021/05/13 07:30:36;;;;;;;6.88;4.63;;;;;;;20.72;46.08;96135.84;4908565;29;20040;-71
2021/05/13 07:33:02;;;;;;;7.43;4.93;;;;;;;19.24;48.03;96062.22;4907290;29;20043;-70
2021/05/13 07:35:27;;;;;;;7.70;5.60;;;;;;;19.09;50.24;96139.75;4908732;29;20390;-69
2021/05/13 07:37:53;;;;;;;7.15;5.18;;;;;;;18.51;51.37;96084.19;4908916;29;20040;-68
2021/05/13 07:40:23;;;;;;;8.05;5.32;;;;;;;18.35;52.39;96141.09;4906856;29;20108;-69
2021/05/13 07:42:49;;;;;;;6.80;5.13;;;;;;;18.48;52.00;96085.84;4908759;29;20407;-69
2021/05/13 07:45:16;;;;;;;9.77;6.32;;;;;;;18.58;52.79;96132.44;4906512;29;20040;-68
2021/05/13 07:47:43;;;;;;;6.85;5.30;;;;;;;19.06;51.30;96129.38;4908829;29;20032;-68
2021/05/13 07:50:15;;;;;;;7.40;5.25;;;;;;;18.68;52.81;96108.91;4908258;29;20042;-68
2021/05/13 07:52:41;;;;;;;5.75;4.80;;;;;;;18.59;53.05;96134.00;4908380;29;20551;-68
2021/05/13 07:55:08;;;;;;;6.05;4.95;;;;;;;19.12;52.90;96129.63;4906319;29;20641;-66
2021/05/13 07:57:34;;;;;;;7.22;4.95;;;;;;;19.52;52.19;96134.34;4906693;29;20046;-68
2021/05/13 07:59:59;;;;;;;6.85;4.80;;;;;;;19.65;50.86;96130.75;4908410;29;20491;-69
2021/05/13 08:02:25;;;;;;;6.07;4.78;;;;;;;19.84;50.62;96121.28;4907967;29;20096;-68
2021/05/13 08:04:51;;;;;;;7.20;5.03;;;;;;;20.29;49.78;96121.72;4908459;29;20065;-68
2021/05/13 08:07:20;;;;;;;6.43;5.15;;;;;;;19.75;51.00;96124.00;4908082;29;20168;-69
2021/05/13 08:09:45;;;;;;;10.52;5.25;;;;;;;19.64;50.25;96048.50;4907295;29;20527;-70
2021/05/13 08:12:11;;;;;;;6.13;4.95;;;;;;;20.44;50.03;96117.16;4907441;29;20119;-69
2021/05/13 08:14:36;;;;;;;5.22;4.72;;;;;;;20.79;48.82;96093.31;4908233;29;20052;-70
2021/05/13 08:17:02;;;;;;;5.97;5.38;;;;;;;21.30;47.79;96117.09;4907949;29;20036;-70
2021/05/13 08:19:27;;;;;;;7.28;4.47;;;;;;;21.72;47.09;96117.41;4908425;29;20048;-68
2021/05/13 08:21:53;;;;;;;6.63;4.47;;;;;;;20.78;48.74;96122.72;4907922;29;20555;-67
2021/05/13 08:24:18;;;;;;;8.27;5.25;;;;;;;20.68;48.62;96084.50;4907281;29;20052;-68
2021/05/13 08:26:44;;;;;;;5.72;5.15;;;;;;;20.85;48.79;96116.81;4907992;29;20411;-67
2021/05/13 08:29:09;;;;;;;7.75;5.55;;;;;;;20.95;48.20;96110.00;4906333;29;20059;-69
2021/05/13 08:31:34;;;;;;;5.40;4.90;;;;;;;21.16;47.67;96114.84;4907147;29;20051;-67
2021/05/13 08:34:00;;;;;;;7.82;4.63;;;;;;;20.52;48.17;96067.81;4906276;29;20070;-68
2021/05/13 08:36:25;;;;;;;7.32;5.47;;;;;;;20.96;47.97;96114.41;4907476;29;20071;-68
2021/05/13 08:38:51;;;;;;;7.97;5.10;;;;;;;21.16;47.92;96102.78;4906448;29;20759;-68
2021/05/13 08:41:16;;;;;;;5.45;4.70;;;;;;;21.46;47.38;96105.59;4907681;29;20495;-69
2021/05/13 08:43:48;;;;;;;5.35;4.90;;;;;;;21.67;46.35;96104.69;4907952;29;20040;-68
2021/05/13 08:46:16;;;;;;;5.07;4.60;;;;;;;21.87;46.65;96060.00;4905780;29;20036;-68
2021/05/13 08:48:41;;;;;;;6.32;4.82;;;;;;;22.46;45.43;96092.47;4907203;29;20032;-67
2021/05/13 08:51:08;;;;;;;5.60;5.15;;;;;;;22.04;45.58;96058.44;4906923;29;20043;-68
2021/05/13 08:53:53;;;;;;;6.93;5.03;;;;;;;22.54;44.69;96059.06;4907012;29;20895;-69
2021/05/13 08:56:20;;;;;;;5.65;5.07;;;;;;;22.86;43.33;96086.63;4906578;29;20455;-69
2021/05/13 08:58:45;;;;;;;9.20;5.28;;;;;;;22.95;42.36;96059.13;4904854;29;20044;-69
2021/05/13 09:01:22;;;;;;;5.05;4.65;;;;;;;23.38;41.36;96083.34;4906198;29;20095;-66
2021/05/13 09:03:50;;;;;;;9.13;6.10;;;;;;;23.48;41.28;96076.38;4906591;29;20032;-67
2021/05/13 09:06:33;;;;;;;11.38;6.05;;;;;;;23.37;41.16;96081.78;4904740;29;20130;-69
2021/05/13 09:09:21;;;;;;;6.45;5.85;;;;;;;23.75;41.05;96077.03;4907134;29;20039;-69
2021/05/13 09:11:57;;;;;;;5.85;5.30;;;;;;;23.12;42.26;96084.97;4920162;29;20047;-69
2021/05/13 09:14:25;;;;;;;5.43;5.00;;;;;;;23.32;43.12;96063.44;4920901;29;20032;-68
2021/05/13 09:16:51;;;;;;;6.03;5.20;;;;;;;22.64;43.10;96069.06;4906680;29;20522;-68
2021/05/13 09:19:34;;;;;;;5.90;4.90;;;;;;;22.64;43.75;96075.53;4905747;29;20071;-68
2021/05/13 09:22:07;;;;;;;5.43;4.90;;;;;;;21.99;45.63;96070.34;4905252;29;20040;-70
2021/05/13 09:25:04;;;;;;;9.57;6.63;;;;;;;22.39;44.48;96064.53;4907650;29;20520;-67
2021/05/13 09:27:43;;;;;;;6.35;5.03;;;;;;;22.16;46.22;96077.22;4902805;29;20403;-69
2021/05/13 09:30:23;;;;;;;7.30;4.75;;;;;;;22.82;44.58;96057.75;4906885;29;20040;-68
2021/05/13 09:32:59;;;;;;;10.30;6.93;;;;;;;23.24;43.92;96067.03;4906168;29;20060;-69
2021/05/13 09:35:33;;;;;;;8.75;7.60;;;;;;;23.26;43.36;96061.72;4906856;29;20531;-68
2021/05/13 09:38:17;;;;;;;5.47;5.07;;;;;;;22.77;44.49;96069.69;4905401;29;20086;-68
2021/05/13 09:40:50;;;;;;;6.32;5.35;;;;;;;22.81;43.48;96033.63;4907143;29;20096;-68
2021/05/13 09:43:20;;;;;;;6.75;5.05;;;;;;;23.06;44.20;96067.13;4907578;29;20068;-69
2021/05/13 09:45:54;;;;;;;6.35;5.43;;;;;;;23.02;42.89;96058.00;4907155;29;20602;-69
2021/05/13 09:48:42;;;;;;;5.18;4.68;;;;;;;22.76;43.11;96054.81;4907859;29;20059;-69
2021/05/13 09:51:37;;;;;;;5.18;4.68;;;;;;;22.44;43.01;96046.97;4906459;29;20311;-69
2021/05/13 09:54:15;;;;;;;5.88;5.07;;;;;;;21.98;44.16;96045.41;4906031;29;20494;-68
2021/05/13 09:56:47;;;;;;;6.93;5.03;;;;;;;22.98;43.20;96048.94;4906618;29;20050;-69
2021/05/13 09:59:23;;;;;;;6.50;4.70;;;;;;;20.58;42.19;95652.38;4906868;29;20056;-68
2021/05/13 10:01:59;;;;;;;8.35;4.72;;;;;;;22.30;43.07;95991.94;4906399;29;20446;-68
2021/05/13 10:04:25;;;;;;;8.18;5.55;;;;;;;23.13;42.95;96044.94;4905415;29;20036;-69
2021/05/13 10:06:52;;;;;;;4.78;4.40;;;;;;;22.52;42.64;96033.34;4905269;29;20587;-69
2021/05/13 10:09:19;;;;;;;5.65;4.70;;;;;;;21.65;42.19;95898.63;4905291;29;20043;-69
2021/05/13 10:11:51;;;;;;;5.22;4.82;;;;;;;22.68;42.50;95922.91;4905107;29;20293;-69
2021/05/13 10:14:18;;;;;;;5.20;4.78;;;;;;;23.89;39.55;96033.09;4907245;29;20048;-68
2021/05/13 10:16:46;;;;;;;6.03;5.43;;;;;;;24.15;39.10;95991.75;4907478;29;20172;-68
2021/05/13 10:19:14;;;;;;;5.32;4.82;;;;;;;24.80;37.68;96019.75;4910271;29;20044;-68
2021/05/13 10:21:41;;;;;;;5.15;4.65;;;;;;;24.86;37.76;96014.97;4910194;29;20040;-69
2021/05/13 10:24:08;;;;;;;6.97;5.63;;;;;;;23.37;39.20;95852.81;4909901;29;20523;-70
2021/05/13 10:26:35;;;;;;;5.97;5.40;;;;;;;24.95;38.61;96006.38;4908151;29;20143;-68
2021/05/13 10:29:01;;;;;;;7.63;4.90;;;;;;;24.91;37.68;95994.44;4910279;29;20048;-69
2021/05/13 10:31:37;;;;;;;6.25;5.00;;;;;;;25.01;37.14;96010.06;4909772;29;20511;-68
2021/05/13 10:34:03;;;;;;;5.47;4.97;;;;;;;24.99;37.70;96006.94;4910412;29;20557;-68
2021/05/13 10:36:28;;;;;;;5.72;5.43;;;;;;;24.74;37.63;96013.19;4909655;29;20036;-69
2021/05/13 10:39:04;;;;;;;6.53;5.22;;;;;;;24.84;37.94;96020.34;4910187;29;20032;-68
2021/05/13 10:41:33;;;;;;;5.93;5.32;;;;;;;25.10;37.67;96018.44;4909724;29;20115;-68
2021/05/13 10:44:19;;;;;;;5.68;5.13;;;;;;;24.97;38.26;96009.50;4909724;29;20047;-67
2021/05/13 10:46:55;;;;;;;9.48;4.95;;;;;;;24.94;38.04;96010.44;4907855;29;20040;-68
2021/05/13 10:49:23;;;;;;;5.80;5.15;;;;;;;24.24;38.38;95923.72;4909632;29;20142;-68
2021/05/13 10:51:51;;;;;;;7.38;5.47;;;;;;;24.92;37.83;96007.34;4909098;29;20483;-69
2021/05/13 10:54:29;;;;;;;5.25;4.72;;;;;;;24.89;38.60;96008.31;4909659;29;20050;-68
2021/05/13 10:57:20;;;;;;;6.25;5.63;;;;;;;25.02;38.31;96005.94;4909438;29;20047;-68
2021/05/13 11:00:20;;;;;;;6.32;5.90;;;;;;;25.22;38.50;96000.38;4907697;29;20071;-69
2021/05/13 11:02:47;;;;;;;7.03;5.38;;;;;;;25.13;38.50;95999.69;4907811;29;20048;-69
2021/05/13 11:05:39;;;;;;;7.53;5.35;;;;;;;25.26;38.08;96003.75;4909264;29;20580;-68
2021/05/13 11:08:25;;;;;;;5.72;5.32;;;;;;;24.59;38.10;95927.44;4909972;29;20038;-68
2021/05/13 11:10:57;;;;;;;6.82;5.95;;;;;;;25.46;37.86;96002.28;4909561;29;20043;-69
2021/05/13 11:13:22;;;;;;;6.30;5.70;;;;;;;25.64;37.75;96004.88;4909699;29;20107;-68
2021/05/13 11:15:51;;;;;;;5.47;4.97;;;;;;;25.90;38.02;96000.06;4907783;29;20036;-70
2021/05/13 11:18:19;;;;;;;5.40;4.90;;;;;;;25.43;39.60;96011.78;4909288;29;20118;-68
2021/05/13 11:20:45;;;;;;;5.88;5.20;;;;;;;25.16;40.00;96044.84;4908786;29;20903;-68
2021/05/13 11:23:19;;;;;;;6.50;5.90;;;;;;;25.32;39.68;95996.13;4909416;29;20036;-67
2021/05/13 11:25:56;;;;;;;6.10;5.38;;;;;;;25.31;39.26;95960.53;4908592;29;20036;-67
2021/05/13 11:28:40;;;;;;;7.65;5.97;;;;;;;25.62;38.54;95996.06;4909010;29;20526;-67
2021/05/13 11:31:05;;;;;;;;;;;;;;;25.70;38.59;95991.53;4907925;29;20099;-68
2021/05/13 11:33:45;;;;;;;5.43;5.03;;;;;;;25.52;38.86;95991.78;4908850;29;19923;-68
2021/05/13 11:36:15;;;;;;;5.45;5.05;;;;;;;25.18;39.10;95982.75;4907117;29;20134;-68
2021/05/13 11:38:42;;;;;;;6.30;5.80;;;;;;;25.11;39.16;95952.00;4908954;29;20610;-68
2021/05/13 11:41:07;;;;;;;7.35;6.38;;;;;;;25.45;39.36;95981.63;4908224;29;20060;-68
2021/05/13 11:43:35;;;;;;;6.90;6.05;;;;;;;24.85;38.05;95905.72;4908824;29;20102;-68
2021/05/13 11:46:04;;;;;;;6.60;5.72;;;;;;;24.72;38.97;95925.09;4908743;29;20055;-68
2021/05/13 11:48:31;;;;;;;6.28;5.47;;;;;;;24.94;39.86;95982.13;4907547;29;20661;-68
2021/05/13 11:51:02;;;;;;;5.85;5.43;;;;;;;24.11;39.60;95897.75;4908321;29;20095;-68